sensor_id;sensor_type;location;lat;lon;timestamp;P1;durP1;ratioP1;P2;durP2;ratioP2
72205;SDS011;60111;48.286;7.812;2023-03-08T00:00:47;25.65;;;14.45;;
72205;SDS011;60111;48.286;7.812;2023-03-08T00:03:19;21.77;;;13.78;;
72205;SDS011;60111;48.286;7.812;2023-03-08T00:05:52;25.82;;;13.13;;
72205;SDS011;60111;48.286;7.812;2023-03-08T00:08:24;26.30;;;14.00;;
72205;SDS011;60111;48.286;7.812;2023-03-08T00:10:57;25.65;;;13.50;;
72205;SDS011;60111;48.286;7.812;2023-03-08T00:13:30;22.82;;;13.10;;
72205;SDS011;60111;48.286;7.812;2023-03-08T00:16:04;22.35;;;12.75;;
72205;SDS011;60111;48.286;7.812;2023-03-08T00:18:38;23.98;;;13.88;;
72205;SDS011;60111;48.286;7.812;2023-03-08T00:21:12;25.57;;;14.03;;
72205;SDS011;60111;48.286;7.812;2023-03-08T00:23:47;26.15;;;13.35;;
72205;SDS011;60111;48.286;7.812;2023-03-08T00:28:53;21.17;;;12.47;;
72205;SDS011;60111;48.286;7.812;2023-03-08T00:31:25;22.93;;;12.75;;
72205;SDS011;60111;48.286;7.812;2023-03-08T00:33:58;25.80;;;13.78;;
72205;SDS011;60111;48.286;7.812;2023-03-08T00:36:30;26.60;;;13.80;;
72205;SDS011;60111;48.286;7.812;2023-03-08T00:39:03;26.35;;;13.25;;
72205;SDS011;60111;48.286;7.812;2023-03-08T00:41:36;25.37;;;13.43;;
72205;SDS011;60111;48.286;7.812;2023-03-08T00:44:09;28.05;;;13.65;;
72205;SDS011;60111;48.286;7.812;2023-03-08T00:46:41;23.83;;;13.00;;
72205;SDS011;60111;48.286;7.812;2023-03-08T00:49:14;21.73;;;13.45;;
72205;SDS011;60111;48.286;7.812;2023-03-08T00:51:47;24.60;;;12.87;;
72205;SDS011;60111;48.286;7.812;2023-03-08T00:54:20;23.42;;;13.05;;
72205;SDS011;60111;48.286;7.812;2023-03-08T00:56:53;26.90;;;13.73;;
72205;SDS011;60111;48.286;7.812;2023-03-08T00:59:25;21.85;;;12.90;;
72205;SDS011;60111;48.286;7.812;2023-03-08T01:01:59;22.07;;;12.37;;
72205;SDS011;60111;48.286;7.812;2023-03-08T01:04:32;22.45;;;12.73;;
72205;SDS011;60111;48.286;7.812;2023-03-08T01:07:04;25.80;;;13.20;;
72205;SDS011;60111;48.286;7.812;2023-03-08T01:09:37;23.10;;;13.80;;
72205;SDS011;60111;48.286;7.812;2023-03-08T01:12:10;24.15;;;12.73;;
72205;SDS011;60111;48.286;7.812;2023-03-08T01:14:42;22.42;;;12.53;;
72205;SDS011;60111;48.286;7.812;2023-03-08T01:17:15;22.67;;;12.53;;
72205;SDS011;60111;48.286;7.812;2023-03-08T01:19:47;25.97;;;13.65;;
72205;SDS011;60111;48.286;7.812;2023-03-08T01:22:20;26.77;;;13.22;;
72205;SDS011;60111;48.286;7.812;2023-03-08T01:24:53;23.45;;;13.13;;
72205;SDS011;60111;48.286;7.812;2023-03-08T01:27:25;27.15;;;13.45;;
72205;SDS011;60111;48.286;7.812;2023-03-08T01:29:58;22.02;;;13.05;;
72205;SDS011;60111;48.286;7.812;2023-03-08T01:32:30;26.02;;;14.28;;
72205;SDS011;60111;48.286;7.812;2023-03-08T01:35:03;30.27;;;15.75;;
72205;SDS011;60111;48.286;7.812;2023-03-08T01:37:36;28.27;;;15.90;;
72205;SDS011;60111;48.286;7.812;2023-03-08T01:40:09;26.77;;;16.07;;
72205;SDS011;60111;48.286;7.812;2023-03-08T01:42:43;24.00;;;12.60;;
72205;SDS011;60111;48.286;7.812;2023-03-08T01:51:20;26.65;;;14.28;;
72205;SDS011;60111;48.286;7.812;2023-03-08T01:53:53;23.52;;;12.78;;
72205;SDS011;60111;48.286;7.812;2023-03-08T01:56:28;24.60;;;14.18;;
72205;SDS011;60111;48.286;7.812;2023-03-08T01:59:01;22.22;;;12.47;;
72205;SDS011;60111;48.286;7.812;2023-03-08T02:01:34;23.00;;;13.05;;
72205;SDS011;60111;48.286;7.812;2023-03-08T02:04:07;21.35;;;12.47;;
72205;SDS011;60111;48.286;7.812;2023-03-08T02:06:42;26.90;;;11.93;;
72205;SDS011;60111;48.286;7.812;2023-03-08T02:09:15;18.83;;;10.93;;
72205;SDS011;60111;48.286;7.812;2023-03-08T02:11:48;24.30;;;12.27;;
72205;SDS011;60111;48.286;7.812;2023-03-08T02:14:21;20.20;;;12.17;;
72205;SDS011;60111;48.286;7.812;2023-03-08T02:16:53;22.50;;;11.97;;
72205;SDS011;60111;48.286;7.812;2023-03-08T02:19:28;21.35;;;11.93;;
72205;SDS011;60111;48.286;7.812;2023-03-08T02:22:08;20.40;;;11.60;;
72205;SDS011;60111;48.286;7.812;2023-03-08T02:24:42;18.00;;;11.50;;
72205;SDS011;60111;48.286;7.812;2023-03-08T02:27:23;20.68;;;11.33;;
72205;SDS011;60111;48.286;7.812;2023-03-08T02:29:54;19.70;;;11.30;;
72205;SDS011;60111;48.286;7.812;2023-03-08T02:32:28;18.52;;;10.43;;
72205;SDS011;60111;48.286;7.812;2023-03-08T02:35:00;22.90;;;10.20;;
72205;SDS011;60111;48.286;7.812;2023-03-08T02:37:33;17.23;;;10.48;;
72205;SDS011;60111;48.286;7.812;2023-03-08T02:40:06;17.75;;;10.68;;
72205;SDS011;60111;48.286;7.812;2023-03-08T02:45:12;17.57;;;10.28;;
72205;SDS011;60111;48.286;7.812;2023-03-08T02:47:45;17.85;;;9.95;;
72205;SDS011;60111;48.286;7.812;2023-03-08T02:50:18;16.53;;;9.90;;
72205;SDS011;60111;48.286;7.812;2023-03-08T02:52:50;21.30;;;10.38;;
72205;SDS011;60111;48.286;7.812;2023-03-08T02:55:23;20.32;;;10.32;;
72205;SDS011;60111;48.286;7.812;2023-03-08T02:57:56;20.70;;;12.15;;
72205;SDS011;60111;48.286;7.812;2023-03-08T03:00:29;19.13;;;10.23;;
72205;SDS011;60111;48.286;7.812;2023-03-08T03:03:02;21.07;;;11.15;;
72205;SDS011;60111;48.286;7.812;2023-03-08T03:05:34;19.62;;;11.20;;
72205;SDS011;60111;48.286;7.812;2023-03-08T03:08:13;18.40;;;11.30;;
72205;SDS011;60111;48.286;7.812;2023-03-08T03:10:45;17.70;;;11.00;;
72205;SDS011;60111;48.286;7.812;2023-03-08T03:13:18;20.20;;;11.33;;
72205;SDS011;60111;48.286;7.812;2023-03-08T03:15:50;19.67;;;11.22;;
72205;SDS011;60111;48.286;7.812;2023-03-08T03:18:23;20.20;;;11.50;;
72205;SDS011;60111;48.286;7.812;2023-03-08T03:21:00;21.40;;;11.97;;
72205;SDS011;60111;48.286;7.812;2023-03-08T03:23:36;20.45;;;11.88;;
72205;SDS011;60111;48.286;7.812;2023-03-08T03:26:10;19.20;;;11.73;;
72205;SDS011;60111;48.286;7.812;2023-03-08T03:28:44;21.30;;;11.57;;
72205;SDS011;60111;48.286;7.812;2023-03-08T03:31:18;20.48;;;11.57;;
72205;SDS011;60111;48.286;7.812;2023-03-08T03:33:52;19.15;;;10.82;;
72205;SDS011;60111;48.286;7.812;2023-03-08T03:36:25;20.77;;;11.00;;
72205;SDS011;60111;48.286;7.812;2023-03-08T03:38:58;21.07;;;11.00;;
72205;SDS011;60111;48.286;7.812;2023-03-08T03:41:30;19.67;;;11.05;;
72205;SDS011;60111;48.286;7.812;2023-03-08T03:44:03;19.52;;;11.60;;
72205;SDS011;60111;48.286;7.812;2023-03-08T03:46:36;23.95;;;12.23;;
72205;SDS011;60111;48.286;7.812;2023-03-08T03:49:09;25.20;;;13.28;;
72205;SDS011;60111;48.286;7.812;2023-03-08T03:51:41;18.92;;;11.75;;
72205;SDS011;60111;48.286;7.812;2023-03-08T03:54:14;20.02;;;11.73;;
72205;SDS011;60111;48.286;7.812;2023-03-08T03:56:47;23.80;;;12.30;;
72205;SDS011;60111;48.286;7.812;2023-03-08T03:59:19;40.70;;;11.88;;
72205;SDS011;60111;48.286;7.812;2023-03-08T04:01:52;21.50;;;11.78;;
72205;SDS011;60111;48.286;7.812;2023-03-08T04:07:18;21.90;;;12.00;;
72205;SDS011;60111;48.286;7.812;2023-03-08T04:09:51;20.85;;;11.83;;
72205;SDS011;60111;48.286;7.812;2023-03-08T04:15:17;21.37;;;12.33;;
72205;SDS011;60111;48.286;7.812;2023-03-08T04:17:50;20.72;;;11.57;;
72205;SDS011;60111;48.286;7.812;2023-03-08T04:20:23;23.80;;;12.57;;
72205;SDS011;60111;48.286;7.812;2023-03-08T04:22:58;22.48;;;13.22;;
72205;SDS011;60111;48.286;7.812;2023-03-08T04:25:30;21.33;;;12.20;;
72205;SDS011;60111;48.286;7.812;2023-03-08T04:28:03;19.85;;;12.18;;
72205;SDS011;60111;48.286;7.812;2023-03-08T04:30:35;23.42;;;11.85;;
72205;SDS011;60111;48.286;7.812;2023-03-08T04:33:08;22.73;;;11.97;;
72205;SDS011;60111;48.286;7.812;2023-03-08T04:35:41;21.40;;;11.68;;
72205;SDS011;60111;48.286;7.812;2023-03-08T04:38:13;21.48;;;11.43;;
72205;SDS011;60111;48.286;7.812;2023-03-08T04:40:50;20.35;;;11.93;;
72205;SDS011;60111;48.286;7.812;2023-03-08T04:43:34;21.47;;;11.23;;
72205;SDS011;60111;48.286;7.812;2023-03-08T04:46:07;18.37;;;11.90;;
72205;SDS011;60111;48.286;7.812;2023-03-08T04:48:40;20.25;;;11.53;;
72205;SDS011;60111;48.286;7.812;2023-03-08T04:54:04;17.27;;;10.88;;
72205;SDS011;60111;48.286;7.812;2023-03-08T04:56:37;20.37;;;11.90;;
72205;SDS011;60111;48.286;7.812;2023-03-08T04:59:09;20.10;;;11.65;;
72205;SDS011;60111;48.286;7.812;2023-03-08T05:01:42;18.17;;;11.10;;
72205;SDS011;60111;48.286;7.812;2023-03-08T05:04:15;18.05;;;11.63;;
72205;SDS011;60111;48.286;7.812;2023-03-08T05:06:47;18.80;;;11.50;;
72205;SDS011;60111;48.286;7.812;2023-03-08T05:09:20;18.07;;;10.80;;
72205;SDS011;60111;48.286;7.812;2023-03-08T05:11:52;18.23;;;10.93;;
72205;SDS011;60111;48.286;7.812;2023-03-08T05:14:25;18.42;;;10.85;;
72205;SDS011;60111;48.286;7.812;2023-03-08T05:16:58;18.98;;;11.12;;
72205;SDS011;60111;48.286;7.812;2023-03-08T05:19:31;22.13;;;11.78;;
72205;SDS011;60111;48.286;7.812;2023-03-08T05:22:03;19.55;;;11.50;;
72205;SDS011;60111;48.286;7.812;2023-03-08T05:24:37;19.05;;;11.78;;
72205;SDS011;60111;48.286;7.812;2023-03-08T05:27:11;19.55;;;11.68;;
72205;SDS011;60111;48.286;7.812;2023-03-08T05:29:43;18.80;;;11.43;;
72205;SDS011;60111;48.286;7.812;2023-03-08T05:32:16;18.75;;;10.85;;
72205;SDS011;60111;48.286;7.812;2023-03-08T05:34:48;22.52;;;11.93;;
72205;SDS011;60111;48.286;7.812;2023-03-08T05:37:23;18.82;;;11.60;;
72205;SDS011;60111;48.286;7.812;2023-03-08T05:39:56;22.95;;;11.43;;
72205;SDS011;60111;48.286;7.812;2023-03-08T05:42:29;21.17;;;11.45;;
72205;SDS011;60111;48.286;7.812;2023-03-08T05:45:04;20.65;;;11.28;;
72205;SDS011;60111;48.286;7.812;2023-03-08T05:47:37;20.50;;;11.18;;
72205;SDS011;60111;48.286;7.812;2023-03-08T05:50:10;20.17;;;11.45;;
72205;SDS011;60111;48.286;7.812;2023-03-08T05:52:43;21.35;;;11.70;;
72205;SDS011;60111;48.286;7.812;2023-03-08T05:55:17;18.53;;;11.20;;
72205;SDS011;60111;48.286;7.812;2023-03-08T05:57:49;18.95;;;10.78;;
72205;SDS011;60111;48.286;7.812;2023-03-08T06:00:22;19.45;;;11.90;;
72205;SDS011;60111;48.286;7.812;2023-03-08T06:02:57;17.67;;;11.90;;
72205;SDS011;60111;48.286;7.812;2023-03-08T06:05:32;20.10;;;11.45;;
72205;SDS011;60111;48.286;7.812;2023-03-08T06:08:05;19.37;;;11.93;;
72205;SDS011;60111;48.286;7.812;2023-03-08T06:10:38;18.00;;;11.57;;
72205;SDS011;60111;48.286;7.812;2023-03-08T06:13:10;18.73;;;10.90;;
72205;SDS011;60111;48.286;7.812;2023-03-08T06:15:43;21.68;;;11.33;;
72205;SDS011;60111;48.286;7.812;2023-03-08T06:18:15;18.67;;;11.05;;
72205;SDS011;60111;48.286;7.812;2023-03-08T06:23:42;17.07;;;10.50;;
72205;SDS011;60111;48.286;7.812;2023-03-08T06:26:16;16.47;;;10.70;;
72205;SDS011;60111;48.286;7.812;2023-03-08T06:28:49;16.80;;;11.08;;
72205;SDS011;60111;48.286;7.812;2023-03-08T06:31:21;17.52;;;9.95;;
72205;SDS011;60111;48.286;7.812;2023-03-08T06:33:54;19.20;;;9.90;;
72205;SDS011;60111;48.286;7.812;2023-03-08T06:36:27;15.67;;;10.20;;
72205;SDS011;60111;48.286;7.812;2023-03-08T06:38:59;19.80;;;10.05;;
72205;SDS011;60111;48.286;7.812;2023-03-08T06:41:32;18.00;;;10.30;;
72205;SDS011;60111;48.286;7.812;2023-03-08T06:44:04;14.65;;;9.78;;
72205;SDS011;60111;48.286;7.812;2023-03-08T06:46:37;17.10;;;10.50;;
72205;SDS011;60111;48.286;7.812;2023-03-08T06:49:09;17.90;;;10.63;;
72205;SDS011;60111;48.286;7.812;2023-03-08T06:51:42;16.70;;;10.23;;
72205;SDS011;60111;48.286;7.812;2023-03-08T06:54:15;17.02;;;10.60;;
72205;SDS011;60111;48.286;7.812;2023-03-08T06:56:48;17.48;;;11.78;;
72205;SDS011;60111;48.286;7.812;2023-03-08T06:59:20;14.75;;;10.13;;
72205;SDS011;60111;48.286;7.812;2023-03-08T07:01:53;18.32;;;11.50;;
72205;SDS011;60111;48.286;7.812;2023-03-08T07:04:26;16.23;;;10.23;;
72205;SDS011;60111;48.286;7.812;2023-03-08T07:06:59;15.48;;;9.50;;
72205;SDS011;60111;48.286;7.812;2023-03-08T07:09:31;14.03;;;8.78;;
72205;SDS011;60111;48.286;7.812;2023-03-08T07:12:04;13.75;;;8.43;;
72205;SDS011;60111;48.286;7.812;2023-03-08T07:14:37;15.25;;;9.10;;
72205;SDS011;60111;48.286;7.812;2023-03-08T07:17:10;16.00;;;9.05;;
72205;SDS011;60111;48.286;7.812;2023-03-08T07:19:42;13.33;;;8.77;;
72205;SDS011;60111;48.286;7.812;2023-03-08T07:22:15;18.70;;;8.48;;
72205;SDS011;60111;48.286;7.812;2023-03-08T07:24:48;13.00;;;8.60;;
72205;SDS011;60111;48.286;7.812;2023-03-08T07:27:20;14.85;;;8.75;;
72205;SDS011;60111;48.286;7.812;2023-03-08T07:29:53;13.03;;;8.78;;
72205;SDS011;60111;48.286;7.812;2023-03-08T07:32:25;14.75;;;8.85;;
72205;SDS011;60111;48.286;7.812;2023-03-08T07:34:59;17.37;;;9.85;;
72205;SDS011;60111;48.286;7.812;2023-03-08T07:37:31;19.15;;;9.98;;
72205;SDS011;60111;48.286;7.812;2023-03-08T07:40:04;16.62;;;9.33;;
72205;SDS011;60111;48.286;7.812;2023-03-08T07:42:38;22.63;;;10.07;;
72205;SDS011;60111;48.286;7.812;2023-03-08T07:45:11;16.00;;;10.08;;
72205;SDS011;60111;48.286;7.812;2023-03-08T07:47:44;17.60;;;9.73;;
72205;SDS011;60111;48.286;7.812;2023-03-08T07:50:17;16.25;;;9.73;;
72205;SDS011;60111;48.286;7.812;2023-03-08T07:52:50;22.67;;;11.00;;
72205;SDS011;60111;48.286;7.812;2023-03-08T07:55:23;14.97;;;9.07;;
72205;SDS011;60111;48.286;7.812;2023-03-08T08:00:29;12.58;;;7.83;;
72205;SDS011;60111;48.286;7.812;2023-03-08T08:03:01;13.30;;;8.18;;
72205;SDS011;60111;48.286;7.812;2023-03-08T08:05:34;11.63;;;7.80;;
72205;SDS011;60111;48.286;7.812;2023-03-08T08:08:07;12.73;;;8.20;;
72205;SDS011;60111;48.286;7.812;2023-03-08T08:10:42;13.62;;;7.75;;
72205;SDS011;60111;48.286;7.812;2023-03-08T08:13:14;12.07;;;7.67;;
72205;SDS011;60111;48.286;7.812;2023-03-08T08:15:55;10.53;;;7.10;;
72205;SDS011;60111;48.286;7.812;2023-03-08T08:18:30;16.87;;;8.50;;
72205;SDS011;60111;48.286;7.812;2023-03-08T08:21:04;11.18;;;7.53;;
72205;SDS011;60111;48.286;7.812;2023-03-08T08:23:39;11.70;;;6.92;;
72205;SDS011;60111;48.286;7.812;2023-03-08T08:26:15;12.10;;;7.63;;
72205;SDS011;60111;48.286;7.812;2023-03-08T08:28:50;11.60;;;7.37;;
72205;SDS011;60111;48.286;7.812;2023-03-08T08:31:26;11.53;;;7.03;;
72205;SDS011;60111;48.286;7.812;2023-03-08T08:34:01;14.80;;;7.78;;
72205;SDS011;60111;48.286;7.812;2023-03-08T08:36:33;12.60;;;7.75;;
72205;SDS011;60111;48.286;7.812;2023-03-08T08:39:06;11.05;;;7.67;;
72205;SDS011;60111;48.286;7.812;2023-03-08T08:41:38;14.73;;;7.28;;
72205;SDS011;60111;48.286;7.812;2023-03-08T08:44:11;12.33;;;7.53;;
72205;SDS011;60111;48.286;7.812;2023-03-08T08:46:44;10.38;;;7.33;;
72205;SDS011;60111;48.286;7.812;2023-03-08T08:49:16;17.70;;;8.45;;
72205;SDS011;60111;48.286;7.812;2023-03-08T08:51:49;12.70;;;7.53;;
72205;SDS011;60111;48.286;7.812;2023-03-08T08:54:23;12.78;;;7.70;;
72205;SDS011;60111;48.286;7.812;2023-03-08T08:56:55;12.68;;;7.75;;
72205;SDS011;60111;48.286;7.812;2023-03-08T08:59:29;11.20;;;6.53;;
72205;SDS011;60111;48.286;7.812;2023-03-08T09:02:01;14.45;;;8.10;;
72205;SDS011;60111;48.286;7.812;2023-03-08T09:04:34;12.30;;;7.28;;
72205;SDS011;60111;48.286;7.812;2023-03-08T09:07:07;12.40;;;7.50;;
72205;SDS011;60111;48.286;7.812;2023-03-08T09:09:39;12.35;;;7.05;;
72205;SDS011;60111;48.286;7.812;2023-03-08T09:12:12;12.40;;;7.40;;
72205;SDS011;60111;48.286;7.812;2023-03-08T09:14:44;12.70;;;7.92;;
72205;SDS011;60111;48.286;7.812;2023-03-08T09:17:17;10.68;;;6.67;;
72205;SDS011;60111;48.286;7.812;2023-03-08T09:19:50;12.40;;;6.40;;
72205;SDS011;60111;48.286;7.812;2023-03-08T09:22:22;11.50;;;5.53;;
72205;SDS011;60111;48.286;7.812;2023-03-08T09:24:56;10.28;;;7.08;;
72205;SDS011;60111;48.286;7.812;2023-03-08T09:27:29;10.38;;;6.10;;
72205;SDS011;60111;48.286;7.812;2023-03-08T09:30:02;27.60;;;5.87;;
72205;SDS011;60111;48.286;7.812;2023-03-08T09:32:35;6.33;;;4.53;;
72205;SDS011;60111;48.286;7.812;2023-03-08T09:35:08;5.15;;;4.00;;
72205;SDS011;60111;48.286;7.812;2023-03-08T09:37:41;7.90;;;4.65;;
72205;SDS011;60111;48.286;7.812;2023-03-08T09:40:17;8.00;;;4.12;;
72205;SDS011;60111;48.286;7.812;2023-03-08T09:42:52;7.15;;;3.85;;
72205;SDS011;60111;48.286;7.812;2023-03-08T09:45:27;6.65;;;4.05;;
72205;SDS011;60111;48.286;7.812;2023-03-08T09:50:51;6.53;;;3.80;;
72205;SDS011;60111;48.286;7.812;2023-03-08T09:56:15;6.47;;;4.28;;
72205;SDS011;60111;48.286;7.812;2023-03-08T09:59:03;7.70;;;4.00;;
72205;SDS011;60111;48.286;7.812;2023-03-08T10:01:52;5.50;;;4.22;;
72205;SDS011;60111;48.286;7.812;2023-03-08T10:04:34;5.67;;;3.98;;
72205;SDS011;60111;48.286;7.812;2023-03-08T10:07:26;5.80;;;4.33;;
72205;SDS011;60111;48.286;7.812;2023-03-08T10:10:12;6.65;;;4.08;;
72205;SDS011;60111;48.286;7.812;2023-03-08T10:13:02;11.55;;;4.03;;
72205;SDS011;60111;48.286;7.812;2023-03-08T10:15:50;7.08;;;4.03;;
72205;SDS011;60111;48.286;7.812;2023-03-08T10:18:36;6.78;;;3.98;;
72205;SDS011;60111;48.286;7.812;2023-03-08T10:21:10;8.38;;;5.12;;
72205;SDS011;60111;48.286;7.812;2023-03-08T10:23:51;9.58;;;5.05;;
72205;SDS011;60111;48.286;7.812;2023-03-08T10:26:32;10.55;;;5.85;;
72205;SDS011;60111;48.286;7.812;2023-03-08T10:29:04;9.68;;;5.95;;
72205;SDS011;60111;48.286;7.812;2023-03-08T10:31:37;7.15;;;4.00;;
72205;SDS011;60111;48.286;7.812;2023-03-08T10:37:07;7.87;;;5.35;;
72205;SDS011;60111;48.286;7.812;2023-03-08T10:39:30;10.88;;;6.47;;
72205;SDS011;60111;48.286;7.812;2023-03-08T10:42:12;8.83;;;5.03;;
72205;SDS011;60111;48.286;7.812;2023-03-08T10:44:46;8.13;;;4.97;;
72205;SDS011;60111;48.286;7.812;2023-03-08T10:47:21;8.38;;;4.72;;
72205;SDS011;60111;48.286;7.812;2023-03-08T10:55:50;6.15;;;3.58;;
72205;SDS011;60111;48.286;7.812;2023-03-08T11:01:31;7.33;;;2.70;;
72205;SDS011;60111;48.286;7.812;2023-03-08T11:06:35;3.50;;;3.08;;
72205;SDS011;60111;48.286;7.812;2023-03-08T11:09:22;5.12;;;2.50;;
72205;SDS011;60111;48.286;7.812;2023-03-08T11:11:59;4.37;;;2.70;;
72205;SDS011;60111;48.286;7.812;2023-03-08T11:14:32;4.70;;;2.60;;
72205;SDS011;60111;48.286;7.812;2023-03-08T11:20:15;6.36;;;3.04;;
72205;SDS011;60111;48.286;7.812;2023-03-08T11:25:34;5.16;;;2.80;;
72205;SDS011;60111;48.286;7.812;2023-03-08T11:28:24;5.28;;;3.17;;
72205;SDS011;60111;48.286;7.812;2023-03-08T11:31:10;4.60;;;3.05;;
72205;SDS011;60111;48.286;7.812;2023-03-08T11:36:39;3.62;;;2.27;;
72205;SDS011;60111;48.286;7.812;2023-03-08T11:39:16;4.92;;;2.33;;
72205;SDS011;60111;48.286;7.812;2023-03-08T11:42:14;2.20;;;2.00;;
72205;SDS011;60111;48.286;7.812;2023-03-08T11:50:38;4.80;;;1.80;;
72205;SDS011;60111;48.286;7.812;2023-03-08T11:56:11;0.90;;;0.82;;
72205;SDS011;60111;48.286;7.812;2023-03-08T11:58:51;3.75;;;1.25;;
72205;SDS011;60111;48.286;7.812;2023-03-08T12:01:27;2.83;;;0.98;;
72205;SDS011;60111;48.286;7.812;2023-03-08T12:04:10;2.75;;;1.05;;
72205;SDS011;60111;48.286;7.812;2023-03-08T12:06:43;1.83;;;1.30;;
72205;SDS011;60111;48.286;7.812;2023-03-08T12:11:55;1.15;;;1.07;;
72205;SDS011;60111;48.286;7.812;2023-03-08T12:14:31;4.76;;;0.82;;
72205;SDS011;60111;48.286;7.812;2023-03-08T12:17:24;3.40;;;1.52;;
72205;SDS011;60111;48.286;7.812;2023-03-08T12:20:14;1.52;;;0.70;;
72205;SDS011;60111;48.286;7.812;2023-03-08T12:22:52;3.25;;;1.17;;
72205;SDS011;60111;48.286;7.812;2023-03-08T12:25:36;1.22;;;0.90;;
72205;SDS011;60111;48.286;7.812;2023-03-08T12:30:58;1.02;;;0.80;;
72205;SDS011;60111;48.286;7.812;2023-03-08T12:33:49;0.98;;;0.70;;
72205;SDS011;60111;48.286;7.812;2023-03-08T12:36:18;3.15;;;0.90;;
72205;SDS011;60111;48.286;7.812;2023-03-08T12:38:54;2.12;;;1.17;;
72205;SDS011;60111;48.286;7.812;2023-03-08T12:41:30;1.92;;;1.10;;
72205;SDS011;60111;48.286;7.812;2023-03-08T12:44:21;2.42;;;1.55;;
72205;SDS011;60111;48.286;7.812;2023-03-08T12:46:51;1.10;;;0.57;;
72205;SDS011;60111;48.286;7.812;2023-03-08T12:49:28;3.77;;;0.80;;
72205;SDS011;60111;48.286;7.812;2023-03-08T12:55:03;2.30;;;0.80;;
72205;SDS011;60111;48.286;7.812;2023-03-08T12:57:53;0.80;;;0.70;;
72205;SDS011;60111;48.286;7.812;2023-03-08T13:00:29;2.30;;;0.70;;
72205;SDS011;60111;48.286;7.812;2023-03-08T13:05:40;2.15;;;0.65;;
72205;SDS011;60111;48.286;7.812;2023-03-08T13:08:17;4.08;;;1.07;;
72205;SDS011;60111;48.286;7.812;2023-03-08T13:16:21;2.47;;;0.80;;
72205;SDS011;60111;48.286;7.812;2023-03-08T13:19:12;0.72;;;0.60;;
72205;SDS011;60111;48.286;7.812;2023-03-08T13:21:54;3.02;;;0.72;;
72205;SDS011;60111;48.286;7.812;2023-03-08T13:27:28;0.35;;;0.35;;
72205;SDS011;60111;48.286;7.812;2023-03-08T13:32:57;0.98;;;0.80;;
72205;SDS011;60111;48.286;7.812;2023-03-08T13:35:30;1.07;;;0.80;;
72205;SDS011;60111;48.286;7.812;2023-03-08T13:40:55;2.25;;;0.98;;
72205;SDS011;60111;48.286;7.812;2023-03-08T13:43:30;1.67;;;0.93;;
72205;SDS011;60111;48.286;7.812;2023-03-08T13:46:05;1.25;;;0.57;;
72205;SDS011;60111;48.286;7.812;2023-03-08T13:48:41;1.65;;;0.72;;
72205;SDS011;60111;48.286;7.812;2023-03-08T13:51:15;5.17;;;0.60;;
72205;SDS011;60111;48.286;7.812;2023-03-08T13:53:50;2.05;;;0.80;;
72205;SDS011;60111;48.286;7.812;2023-03-08T13:56:24;1.02;;;0.70;;
72205;SDS011;60111;48.286;7.812;2023-03-08T13:58:58;0.75;;;0.62;;
72205;SDS011;60111;48.286;7.812;2023-03-08T14:01:31;0.82;;;0.50;;
72205;SDS011;60111;48.286;7.812;2023-03-08T14:04:09;2.90;;;0.85;;
72205;SDS011;60111;48.286;7.812;2023-03-08T14:06:46;2.08;;;1.00;;
72205;SDS011;60111;48.286;7.812;2023-03-08T14:09:16;2.50;;;0.95;;
72205;SDS011;60111;48.286;7.812;2023-03-08T14:11:54;2.30;;;0.80;;
72205;SDS011;60111;48.286;7.812;2023-03-08T14:17:13;2.57;;;0.80;;
72205;SDS011;60111;48.286;7.812;2023-03-08T14:19:47;2.85;;;0.60;;
72205;SDS011;60111;48.286;7.812;2023-03-08T14:22:25;2.92;;;0.85;;
72205;SDS011;60111;48.286;7.812;2023-03-08T14:25:00;2.35;;;0.60;;
72205;SDS011;60111;48.286;7.812;2023-03-08T14:27:40;4.17;;;0.70;;
72205;SDS011;60111;48.286;7.812;2023-03-08T14:30:12;1.83;;;0.60;;
72205;SDS011;60111;48.286;7.812;2023-03-08T14:33:04;1.70;;;0.87;;
72205;SDS011;60111;48.286;7.812;2023-03-08T14:35:39;3.00;;;0.60;;
72205;SDS011;60111;48.286;7.812;2023-03-08T14:38:25;1.70;;;0.53;;
72205;SDS011;60111;48.286;7.812;2023-03-08T14:41:01;3.08;;;0.80;;
72205;SDS011;60111;48.286;7.812;2023-03-08T14:43:37;4.30;;;0.80;;
72205;SDS011;60111;48.286;7.812;2023-03-08T14:46:16;1.12;;;0.78;;
72205;SDS011;60111;48.286;7.812;2023-03-08T14:49:03;6.03;;;0.70;;
72205;SDS011;60111;48.286;7.812;2023-03-08T14:51:40;6.20;;;0.90;;
72205;SDS011;60111;48.286;7.812;2023-03-08T14:57:17;6.92;;;0.70;;
72205;SDS011;60111;48.286;7.812;2023-03-08T14:59:52;3.52;;;0.95;;
72205;SDS011;60111;48.286;7.812;2023-03-08T15:02:26;1.15;;;0.90;;
72205;SDS011;60111;48.286;7.812;2023-03-08T15:05:00;2.70;;;0.93;;
72205;SDS011;60111;48.286;7.812;2023-03-08T15:07:33;1.75;;;0.80;;
72205;SDS011;60111;48.286;7.812;2023-03-08T15:10:07;2.90;;;0.80;;
72205;SDS011;60111;48.286;7.812;2023-03-08T15:12:42;2.10;;;1.10;;
72205;SDS011;60111;48.286;7.812;2023-03-08T15:15:15;2.02;;;0.80;;
72205;SDS011;60111;48.286;7.812;2023-03-08T15:17:47;1.37;;;0.60;;
72205;SDS011;60111;48.286;7.812;2023-03-08T15:20:20;0.80;;;0.50;;
72205;SDS011;60111;48.286;7.812;2023-03-08T15:22:55;4.70;;;0.70;;
72205;SDS011;60111;48.286;7.812;2023-03-08T15:25:34;0.65;;;0.42;;
72205;SDS011;60111;48.286;7.812;2023-03-08T15:28:09;2.52;;;0.62;;
72205;SDS011;60111;48.286;7.812;2023-03-08T15:30:44;2.17;;;0.70;;
72205;SDS011;60111;48.286;7.812;2023-03-08T15:33:17;2.15;;;0.98;;
72205;SDS011;60111;48.286;7.812;2023-03-08T15:35:51;6.73;;;1.27;;
72205;SDS011;60111;48.286;7.812;2023-03-08T15:38:23;0.50;;;0.50;;
72205;SDS011;60111;48.286;7.812;2023-03-08T15:40:56;1.98;;;0.70;;
72205;SDS011;60111;48.286;7.812;2023-03-08T15:43:28;3.92;;;0.70;;
72205;SDS011;60111;48.286;7.812;2023-03-08T15:46:03;0.60;;;0.60;;
72205;SDS011;60111;48.286;7.812;2023-03-08T15:48:35;2.25;;;0.70;;
72205;SDS011;60111;48.286;7.812;2023-03-08T15:51:19;1.70;;;0.50;;
72205;SDS011;60111;48.286;7.812;2023-03-08T15:53:49;2.33;;;1.00;;
72205;SDS011;60111;48.286;7.812;2023-03-08T15:56:21;1.10;;;0.93;;
72205;SDS011;60111;48.286;7.812;2023-03-08T15:58:55;1.60;;;0.70;;
72205;SDS011;60111;48.286;7.812;2023-03-08T16:01:28;2.12;;;0.93;;
72205;SDS011;60111;48.286;7.812;2023-03-08T16:04:02;1.45;;;0.93;;
72205;SDS011;60111;48.286;7.812;2023-03-08T16:06:34;1.07;;;0.70;;
72205;SDS011;60111;48.286;7.812;2023-03-08T16:09:07;1.85;;;0.68;;
72205;SDS011;60111;48.286;7.812;2023-03-08T16:11:39;1.15;;;0.90;;
72205;SDS011;60111;48.286;7.812;2023-03-08T16:14:12;1.67;;;1.00;;
72205;SDS011;60111;48.286;7.812;2023-03-08T16:16:46;3.22;;;1.00;;
72205;SDS011;60111;48.286;7.812;2023-03-08T16:19:19;2.33;;;0.90;;
72205;SDS011;60111;48.286;7.812;2023-03-08T16:21:51;2.60;;;1.10;;
72205;SDS011;60111;48.286;7.812;2023-03-08T16:24:24;3.30;;;0.90;;
72205;SDS011;60111;48.286;7.812;2023-03-08T16:26:57;1.35;;;0.82;;
72205;SDS011;60111;48.286;7.812;2023-03-08T16:29:34;1.77;;;0.90;;
72205;SDS011;60111;48.286;7.812;2023-03-08T16:32:06;1.35;;;0.90;;
72205;SDS011;60111;48.286;7.812;2023-03-08T16:34:41;2.80;;;0.72;;
72205;SDS011;60111;48.286;7.812;2023-03-08T16:37:17;1.63;;;1.00;;
72205;SDS011;60111;48.286;7.812;2023-03-08T16:39:51;4.03;;;1.22;;
72205;SDS011;60111;48.286;7.812;2023-03-08T16:42:24;1.07;;;0.98;;
72205;SDS011;60111;48.286;7.812;2023-03-08T16:44:57;1.15;;;0.98;;
72205;SDS011;60111;48.286;7.812;2023-03-08T16:47:30;2.50;;;1.00;;
72205;SDS011;60111;48.286;7.812;2023-03-08T16:50:03;1.87;;;1.50;;